createdAt,value
2019-03-30T00:02:01.569Z,62.56
2019-03-30T00:04:32.333Z,62.82
2019-03-30T00:07:03.090Z,62.84
2019-03-30T00:09:33.858Z,62.68
2019-03-30T00:12:04.614Z,62.80
2019-03-30T00:14:35.379Z,62.88
2019-03-30T00:17:06.130Z,62.85
2019-03-30T00:19:36.899Z,62.70
2019-03-30T00:22:07.648Z,62.83
2019-03-30T00:24:38.414Z,62.80
2019-03-30T00:27:09.255Z,62.79
2019-03-30T00:29:40.017Z,62.99
2019-03-30T00:32:10.771Z,62.72
2019-03-30T00:34:41.533Z,62.64
2019-03-30T00:37:12.328Z,62.99
2019-03-30T00:39:43.152Z,63.46
2019-03-30T00:42:13.939Z,63.36
2019-03-30T00:44:44.759Z,63.62
2019-03-30T00:47:15.516Z,63.58
2019-03-30T00:49:49.751Z,63.87
2019-03-30T00:52:18.934Z,63.75
2019-03-30T00:54:49.696Z,63.45
2019-03-30T00:57:20.460Z,63.65
2019-03-30T00:59:51.226Z,64.24
2019-03-30T01:02:22.000Z,64.26
2019-03-30T01:04:52.763Z,64.20
2019-03-30T01:07:23.515Z,64.13
2019-03-30T01:09:54.282Z,64.21
2019-03-30T01:12:25.042Z,64.10
2019-03-30T01:14:55.804Z,64.41
2019-03-30T01:17:26.789Z,64.00
2019-03-30T01:20:03.301Z,64.51
2019-03-30T01:22:30.208Z,64.24
2019-03-30T01:25:00.973Z,64.14
2019-03-30T01:27:31.723Z,64.58
2019-03-30T01:30:03.987Z,65.14
2019-03-30T01:32:35.191Z,64.63
2019-03-30T01:35:06.182Z,64.41
2019-03-30T01:37:36.907Z,64.47
2019-03-30T01:40:07.866Z,64.31
2019-03-30T01:42:38.618Z,64.30
2019-03-30T01:45:09.379Z,64.29
2019-03-30T01:47:40.232Z,64.62
2019-03-30T01:50:17.550Z,65.00
2019-03-30T01:52:43.755Z,65.05
2019-03-30T01:55:14.512Z,64.87
2019-03-30T01:57:45.273Z,65.17
2019-03-30T02:00:16.642Z,65.53
2019-03-30T02:02:47.490Z,65.05
2019-03-30T02:05:18.369Z,65.61
2019-03-30T02:07:49.113Z,65.61
2019-03-30T02:10:37.538Z,65.10
2019-03-30T02:13:08.389Z,64.72
2019-03-30T02:15:39.248Z,65.36
2019-03-30T02:18:10.018Z,65.42
2019-03-30T02:20:45.127Z,65.44
2019-03-30T02:23:15.876Z,65.29
2019-03-30T02:25:46.640Z,65.65
2019-03-30T02:28:17.495Z,65.93
2019-03-30T02:30:48.253Z,65.90
2019-03-30T02:33:19.013Z,65.78
2019-03-30T02:35:49.996Z,66.17
2019-03-30T02:38:20.756Z,65.87
2019-03-30T02:40:51.519Z,65.78
2019-03-30T02:43:22.274Z,65.87
2019-03-30T02:45:53.033Z,65.94
2019-03-30T02:48:23.853Z,65.99
2019-03-30T02:50:54.618Z,65.90
2019-03-30T02:53:25.363Z,66.28
2019-03-30T02:55:56.128Z,65.96
2019-03-30T02:58:26.893Z,66.13
2019-03-30T03:00:57.654Z,66.06
2019-03-30T03:03:28.639Z,66.45
2019-03-30T03:05:59.606Z,66.32
2019-03-30T03:08:30.358Z,66.35
2019-03-30T03:11:01.389Z,66.07
2019-03-30T03:13:32.149Z,66.12
2019-03-30T03:16:02.950Z,66.21
2019-03-30T03:18:33.717Z,66.97
2019-03-30T03:21:07.985Z,66.91
2019-03-30T03:23:37.164Z,66.80
2019-03-30T03:26:07.906Z,66.80
2019-03-30T03:28:38.655Z,66.63
2019-03-30T03:31:09.426Z,66.58
2019-03-30T03:33:40.202Z,66.81
2019-03-30T03:36:10.933Z,66.78
2019-03-30T03:38:41.692Z,66.51
2019-03-30T03:41:12.446Z,66.58
2019-03-30T03:43:43.197Z,66.69
2019-03-30T03:46:13.976Z,66.50
2019-03-30T03:48:44.732Z,66.72
2019-03-30T03:51:26.142Z,66.82
2019-03-30T03:53:50.566Z,67.03
2019-03-30T03:56:22.209Z,66.92
2019-03-30T03:58:54.962Z,66.92
2019-03-30T04:01:25.957Z,67.05
2019-03-30T04:03:58.282Z,67.27
2019-03-30T04:06:31.258Z,67.33
2019-03-30T04:09:04.371Z,67.31
2019-03-30T04:11:36.331Z,67.07
2019-03-30T04:14:07.786Z,67.24
2019-03-30T04:16:38.552Z,67.52
2019-03-30T04:19:09.303Z,67.63
2019-03-30T04:21:44.105Z,67.66
2019-03-30T04:24:12.721Z,67.90
2019-03-30T04:26:43.583Z,67.76
2019-03-30T04:29:14.443Z,67.97
2019-03-30T04:31:45.206Z,67.81
2019-03-30T04:34:16.298Z,67.82
2019-03-30T04:36:47.070Z,67.66
2019-03-30T04:39:17.820Z,67.81
2019-03-30T04:41:48.584Z,67.75
2019-03-30T04:44:19.343Z,68.20
2019-03-30T04:46:50.104Z,68.13
2019-03-30T04:49:20.857Z,68.08
2019-03-30T04:51:57.858Z,67.58
2019-03-30T04:54:24.275Z,68.02
2019-03-30T04:56:55.064Z,68.00
2019-03-30T04:59:25.814Z,67.81
2019-03-30T05:01:56.565Z,67.87
2019-03-30T05:04:27.338Z,68.18
2019-03-30T05:06:58.112Z,68.55
2019-03-30T05:09:28.867Z,68.42
2019-03-30T05:11:59.655Z,68.20
2019-03-30T05:14:30.405Z,68.16
2019-03-30T05:17:01.155Z,68.77
2019-03-30T05:19:31.937Z,68.56
2019-03-30T05:22:12.006Z,68.13
2019-03-30T05:24:35.348Z,68.19
2019-03-30T05:27:06.106Z,68.00
2019-03-30T05:29:36.868Z,67.75
2019-03-30T05:32:07.621Z,67.67
2019-03-30T05:34:38.384Z,67.96
2019-03-30T05:37:09.136Z,68.06
2019-03-30T05:39:39.898Z,68.03
2019-03-30T05:42:10.709Z,68.28
2019-03-30T05:44:41.503Z,68.44
2019-03-30T05:47:12.235Z,68.91
2019-03-30T05:49:43.125Z,69.05
2019-03-30T05:52:25.891Z,69.17
2019-03-30T05:54:46.557Z,69.45
2019-03-30T05:57:17.325Z,69.03
2019-03-30T05:59:48.090Z,68.55
2019-03-30T06:02:18.842Z,68.57
2019-03-30T06:04:49.603Z,68.57
2019-03-30T06:07:20.371Z,68.51
2019-03-30T06:09:51.146Z,68.12
2019-03-30T06:12:21.893Z,68.64
2019-03-30T06:14:52.653Z,69.19
2019-03-30T06:17:23.409Z,68.72
2019-03-30T06:19:54.265Z,68.35
2019-03-30T06:22:25.117Z,68.26
2019-03-30T06:24:55.886Z,68.00
2019-03-30T06:27:26.635Z,67.69
2019-03-30T06:30:12.179Z,67.70
2019-03-30T06:32:43.937Z,67.95
2019-03-30T06:35:14.819Z,67.83
2019-03-30T06:37:45.672Z,68.63
2019-03-30T06:40:16.542Z,68.73
2019-03-30T06:42:47.377Z,68.54
2019-03-30T06:45:18.225Z,68.31
2019-03-30T06:47:49.041Z,68.50
2019-03-30T06:50:19.906Z,67.97
2019-03-30T06:52:57.552Z,68.14
2019-03-30T06:55:23.374Z,67.97
2019-03-30T06:57:54.154Z,68.08
2019-03-30T07:00:32.527Z,68.28
2019-03-30T07:03:04.475Z,67.88
2019-03-30T07:05:40.262Z,67.70
2019-03-30T07:08:12.411Z,67.58
2019-03-30T07:10:43.677Z,67.26
2019-03-30T07:13:14.923Z,67.50
2019-03-30T07:15:47.867Z,67.29
2019-03-30T07:18:18.628Z,67.23
2019-03-30T07:20:49.472Z,67.35
2019-03-30T07:23:20.230Z,67.03
2019-03-30T07:25:50.986Z,66.43
2019-03-30T07:28:21.783Z,66.69
2019-03-30T07:30:52.545Z,66.33
2019-03-30T07:33:23.290Z,65.76
2019-03-30T07:35:54.055Z,65.98
2019-03-30T07:38:24.806Z,65.77
2019-03-30T07:40:55.661Z,65.88
2019-03-30T07:43:26.413Z,65.20
2019-03-30T07:45:57.174Z,65.78
2019-03-30T07:48:27.952Z,64.53
2019-03-30T07:50:58.826Z,63.55
2019-03-30T07:53:43.607Z,63.64
2019-03-30T07:56:08.174Z,63.33
2019-03-30T07:58:35.032Z,63.61
2019-03-30T08:01:05.834Z,63.20
2019-03-30T08:03:36.666Z,62.69
2019-03-30T08:06:07.517Z,62.54
2019-03-30T08:08:38.290Z,61.81
2019-03-30T08:11:09.055Z,61.70
2019-03-30T08:13:39.804Z,61.71
2019-03-30T08:16:10.573Z,60.69
2019-03-30T08:18:41.329Z,60.38
2019-03-30T08:21:12.091Z,60.50
2019-03-30T08:23:42.847Z,60.18
2019-03-30T08:26:13.606Z,60.03
2019-03-30T08:28:44.423Z,60.02
2019-03-30T08:31:15.197Z,60.01
2019-03-30T08:33:45.949Z,60.39
2019-03-30T08:36:16.711Z,60.26
2019-03-30T08:38:47.458Z,59.62
2019-03-30T08:41:18.224Z,59.92
2019-03-30T08:43:48.974Z,59.66
2019-03-30T08:46:19.738Z,58.67
2019-03-30T08:48:50.490Z,58.06
2019-03-30T08:51:21.253Z,57.92
2019-03-30T08:53:54.814Z,57.81
2019-03-30T08:56:27.871Z,57.55
2019-03-30T08:58:57.641Z,57.36
2019-03-30T09:01:28.416Z,57.39
2019-03-30T09:03:59.171Z,57.16
2019-03-30T09:06:29.935Z,56.65
2019-03-30T09:09:00.692Z,56.35
2019-03-30T09:11:31.455Z,55.89
2019-03-30T09:14:02.352Z,55.37
2019-03-30T09:16:33.113Z,54.83
2019-03-30T09:19:03.867Z,54.66
2019-03-30T09:21:34.648Z,53.68
2019-03-30T09:24:09.989Z,53.68
2019-03-30T09:26:38.179Z,54.26
2019-03-30T09:29:08.994Z,54.11
2019-03-30T09:31:39.762Z,53.28
2019-03-30T09:34:10.564Z,53.10
2019-03-30T09:38:34.311Z,53.81
2019-03-30T09:41:05.086Z,51.44
2019-03-30T09:43:37.523Z,50.74
2019-03-30T09:46:08.585Z,50.82
2019-03-30T09:48:39.354Z,50.56
2019-03-30T09:51:10.106Z,49.59
2019-03-30T09:53:40.865Z,49.33
2019-03-30T09:56:11.663Z,48.97
2019-03-30T09:58:42.490Z,48.97
2019-03-30T10:01:13.309Z,48.91
2019-03-30T10:03:44.157Z,48.00
2019-03-30T10:06:14.997Z,48.49
2019-03-30T10:08:45.829Z,47.62
2019-03-30T10:11:16.594Z,47.15
2019-03-30T10:13:47.408Z,46.59
2019-03-30T10:16:18.186Z,46.59
2019-03-30T10:18:48.973Z,46.49
2019-03-30T10:21:19.898Z,46.79
2019-03-30T10:23:50.700Z,46.05
2019-03-30T10:26:21.488Z,45.89
2019-03-30T10:28:52.286Z,44.65
2019-03-30T10:31:23.037Z,45.18
2019-03-30T10:33:53.798Z,43.12
2019-03-30T10:36:24.549Z,44.91
2019-03-30T10:38:55.318Z,44.29
2019-03-30T10:41:26.070Z,43.48
2019-03-30T10:43:56.836Z,42.95
2019-03-30T10:46:27.659Z,43.05
2019-03-30T10:48:58.415Z,43.05
2019-03-30T10:51:29.165Z,42.54
2019-03-30T10:53:59.960Z,42.13
2019-03-30T10:56:30.721Z,41.89
2019-03-30T10:59:01.494Z,42.96
2019-03-30T11:01:32.264Z,42.64
2019-03-30T11:04:03.040Z,42.64
2019-03-30T11:06:33.790Z,41.56
2019-03-30T11:09:04.555Z,40.45
2019-03-30T11:11:35.310Z,41.56
2019-03-30T11:14:06.072Z,40.39
2019-03-30T11:16:36.833Z,40.53
2019-03-30T11:19:07.589Z,40.94
2019-03-30T11:21:38.341Z,38.97
2019-03-30T11:24:09.182Z,38.75
2019-03-30T11:26:39.937Z,39.88
2019-03-30T11:29:10.703Z,40.89
2019-03-30T11:31:41.459Z,40.24
2019-03-30T11:34:12.221Z,40.40
2019-03-30T11:36:42.973Z,39.63
2019-03-30T11:39:13.743Z,38.84
2019-03-30T11:41:44.505Z,40.41
2019-03-30T11:44:15.265Z,39.33
2019-03-30T11:46:46.017Z,38.78
2019-03-30T11:49:16.797Z,38.30
2019-03-30T11:51:47.549Z,39.03
2019-03-30T11:54:18.314Z,38.71
2019-03-30T11:56:49.088Z,37.83
2019-03-30T11:59:19.855Z,38.51
2019-03-30T12:01:50.618Z,39.05
2019-03-30T12:04:21.444Z,39.61
2019-03-30T12:06:52.194Z,38.86
2019-03-30T12:09:22.962Z,37.85
2019-03-30T12:11:53.817Z,38.85
2019-03-30T12:14:25.003Z,38.52
2019-03-30T12:16:55.753Z,38.52
2019-03-30T12:19:26.517Z,38.82
2019-03-30T12:21:57.270Z,39.95
2019-03-30T12:24:28.034Z,40.56
2019-03-30T12:26:58.798Z,40.00
2019-03-30T12:29:29.604Z,39.30
2019-03-30T12:32:00.356Z,38.44
2019-03-30T12:34:31.166Z,39.37
2019-03-30T12:37:01.924Z,38.39
2019-03-30T12:39:32.679Z,38.04
2019-03-30T12:42:03.441Z,37.54
2019-03-30T12:44:34.203Z,38.89
2019-03-30T12:47:04.966Z,39.71
2019-03-30T12:49:35.713Z,37.92
2019-03-30T12:52:06.481Z,39.74
2019-03-30T12:54:37.249Z,40.02
2019-03-30T12:57:08.041Z,38.43
2019-03-30T12:59:38.789Z,38.08
2019-03-30T13:02:09.558Z,39.29
2019-03-30T13:04:40.317Z,39.61
2019-03-30T13:07:11.072Z,38.77
2019-03-30T13:09:41.826Z,39.25
2019-03-30T13:12:12.597Z,38.62
2019-03-30T13:14:43.373Z,38.81
2019-03-30T13:17:14.142Z,38.81
2019-03-30T13:19:44.895Z,38.09
2019-03-30T13:22:15.658Z,38.14
2019-03-30T13:24:46.412Z,37.59
2019-03-30T13:27:17.180Z,37.90
2019-03-30T13:29:47.930Z,37.94
2019-03-30T13:32:18.698Z,38.35
2019-03-30T13:34:49.455Z,38.28
2019-03-30T13:37:20.318Z,38.55
2019-03-30T13:39:51.116Z,38.64
2019-03-30T13:42:21.910Z,38.39
2019-03-30T13:44:52.661Z,37.89
2019-03-30T13:47:23.445Z,38.01
2019-03-30T13:49:54.193Z,37.88
2019-03-30T13:52:24.987Z,38.77
2019-03-30T13:54:55.743Z,38.96
2019-03-30T13:57:26.527Z,38.48
2019-03-30T13:59:57.275Z,38.86
2019-03-30T14:02:28.055Z,38.82
2019-03-30T14:04:58.800Z,38.03
2019-03-30T14:07:29.596Z,38.13
2019-03-30T14:10:00.401Z,38.27
2019-03-30T14:12:31.187Z,37.71
2019-03-30T14:15:02.745Z,37.32
2019-03-30T14:17:33.511Z,38.06
2019-03-30T14:20:07.928Z,37.92
2019-03-30T14:22:38.784Z,38.40
2019-03-30T14:25:09.961Z,38.71
2019-03-30T14:27:40.804Z,38.44
2019-03-30T14:30:12.045Z,38.42
2019-03-30T14:32:42.862Z,37.64
2019-03-30T14:35:13.639Z,38.54
2019-03-30T14:37:44.459Z,39.34
2019-03-30T14:40:15.266Z,38.93
2019-03-30T14:42:46.107Z,38.95
2019-03-30T14:45:17.307Z,39.16
2019-03-30T14:47:48.125Z,38.27
2019-03-30T14:50:19.031Z,38.85
2019-03-30T14:52:49.848Z,38.21
2019-03-30T14:55:20.612Z,38.48
2019-03-30T14:57:51.388Z,38.85
2019-03-30T15:00:22.216Z,38.02
2019-03-30T15:02:53.109Z,38.33
2019-03-30T15:05:23.866Z,38.18
2019-03-30T15:07:54.650Z,37.95
2019-03-30T15:10:25.401Z,38.25
2019-03-30T15:12:56.169Z,38.79
2019-03-30T15:15:26.930Z,38.62
2019-03-30T15:17:57.739Z,37.98
2019-03-30T15:20:28.489Z,37.82
2019-03-30T15:22:59.258Z,37.71
2019-03-30T15:25:30.016Z,37.68
2019-03-30T15:28:00.780Z,37.97
2019-03-30T15:30:31.538Z,37.16
2019-03-30T15:33:03.546Z,37.81
2019-03-30T15:35:34.462Z,37.92
2019-03-30T15:38:05.232Z,37.79
2019-03-30T15:40:35.979Z,37.97
2019-03-30T15:43:06.755Z,38.31
2019-03-30T15:45:37.497Z,37.71
2019-03-30T15:48:08.347Z,38.20
2019-03-30T15:50:39.213Z,37.86
2019-03-30T15:53:09.979Z,38.06
2019-03-30T15:55:40.822Z,37.91
2019-03-30T15:58:11.610Z,39.20
2019-03-30T16:00:42.357Z,38.29
2019-03-30T16:03:13.155Z,38.30
2019-03-30T16:05:43.913Z,38.78
2019-03-30T16:08:14.688Z,38.34
2019-03-30T16:10:45.454Z,38.39
2019-03-30T16:13:16.219Z,38.39
2019-03-30T16:15:47.042Z,38.24
2019-03-30T16:18:18.078Z,38.67
2019-03-30T16:20:48.837Z,38.67
2019-03-30T16:23:19.594Z,38.29
2019-03-30T16:25:50.357Z,38.73
2019-03-30T16:28:21.111Z,38.59
2019-03-30T16:30:51.881Z,38.76
2019-03-30T16:33:22.668Z,39.03
2019-03-30T16:35:53.430Z,38.92
2019-03-30T16:38:24.180Z,38.84
2019-03-30T16:40:54.946Z,38.50
2019-03-30T16:43:26.038Z,38.92
2019-03-30T16:45:56.811Z,38.88
2019-03-30T16:48:27.584Z,39.24
2019-03-30T16:50:58.347Z,39.11
2019-03-30T16:53:29.097Z,39.31
2019-03-30T16:55:59.867Z,39.35
2019-03-30T16:58:30.651Z,39.30
2019-03-30T17:01:01.413Z,39.31
2019-03-30T17:03:32.162Z,39.40
2019-03-30T17:06:02.986Z,39.44
2019-03-30T17:08:33.782Z,39.28
2019-03-30T17:11:04.581Z,39.74
2019-03-30T17:13:35.400Z,39.92
2019-03-30T17:16:06.402Z,40.11
2019-03-30T17:18:37.174Z,40.03
2019-03-30T17:21:07.958Z,40.03
2019-03-30T17:23:38.706Z,40.18
2019-03-30T17:26:09.470Z,40.41
2019-03-30T17:28:40.231Z,40.98
2019-03-30T17:31:10.990Z,40.81
2019-03-30T17:33:41.753Z,40.66
2019-03-30T17:36:12.509Z,40.76
2019-03-30T17:38:43.264Z,40.91
2019-03-30T17:41:14.030Z,41.95
2019-03-30T17:43:45.996Z,42.93
2019-03-30T17:46:16.757Z,43.70
2019-03-30T17:48:47.510Z,44.13
2019-03-30T17:51:18.278Z,44.61
2019-03-30T17:53:49.036Z,45.46
2019-03-30T17:56:19.815Z,45.67
2019-03-30T17:58:50.578Z,46.17
2019-03-30T18:01:21.341Z,46.86
2019-03-30T18:03:52.106Z,47.31
2019-03-30T18:06:22.871Z,47.31
2019-03-30T18:08:53.641Z,47.68
2019-03-30T18:11:24.397Z,48.08
2019-03-30T18:13:55.166Z,48.15
2019-03-30T18:16:25.944Z,48.45
2019-03-30T18:18:56.698Z,48.82
2019-03-30T18:21:27.468Z,48.78
2019-03-30T18:23:58.224Z,48.90
2019-03-30T18:26:29.006Z,49.38
2019-03-30T18:28:59.761Z,49.38
2019-03-30T18:31:30.521Z,50.02
2019-03-30T18:34:01.281Z,49.99
2019-03-30T18:36:33.255Z,49.93
2019-03-30T18:39:09.692Z,50.00
2019-03-30T18:41:37.286Z,49.99
2019-03-30T18:44:08.039Z,50.04
2019-03-30T18:46:38.814Z,50.27
2019-03-30T18:49:09.566Z,50.57
2019-03-30T18:51:41.143Z,50.94
2019-03-30T18:54:11.899Z,51.03
2019-03-30T18:56:42.679Z,50.99
2019-03-30T18:59:13.564Z,50.82
2019-03-30T19:01:44.326Z,50.73
2019-03-30T19:04:15.077Z,50.33
2019-03-30T19:06:45.878Z,50.73
2019-03-30T19:09:17.786Z,51.00
2019-03-30T19:11:48.559Z,51.37
2019-03-30T19:14:19.309Z,51.65
2019-03-30T19:16:50.075Z,52.06
2019-03-30T19:19:20.904Z,52.11
2019-03-30T19:21:51.679Z,51.99
2019-03-30T19:24:22.436Z,51.80
2019-03-30T19:26:53.201Z,51.60
2019-03-30T19:29:23.955Z,52.58
2019-03-30T19:31:54.726Z,52.91
2019-03-30T19:34:25.485Z,52.93
2019-03-30T19:36:56.339Z,53.15
2019-03-30T19:39:27.280Z,52.86
2019-03-30T19:41:58.242Z,52.80
2019-03-30T19:44:29.007Z,52.62
2019-03-30T19:46:59.765Z,52.97
2019-03-30T19:49:30.519Z,53.48
2019-03-30T19:52:01.326Z,53.98
2019-03-30T19:54:32.100Z,54.75
2019-03-30T19:57:02.957Z,54.55
2019-03-30T19:59:34.995Z,54.32
2019-03-30T20:02:05.811Z,54.66
2019-03-30T20:04:36.629Z,55.02
2019-03-30T20:07:07.828Z,55.14
2019-03-30T20:09:38.578Z,55.87
2019-03-30T20:12:09.445Z,55.98
2019-03-30T20:14:40.216Z,56.60
2019-03-30T20:17:11.017Z,56.31
2019-03-30T20:19:41.842Z,56.22
2019-03-30T20:22:12.607Z,56.04
2019-03-30T20:24:43.358Z,55.21
2019-03-30T20:27:14.121Z,55.34
2019-03-30T20:29:44.887Z,55.99
2019-03-30T20:32:15.650Z,56.56
2019-03-30T20:34:46.408Z,56.73
2019-03-30T20:37:17.175Z,56.63
2019-03-30T20:39:47.935Z,55.99
2019-03-30T20:42:18.741Z,56.49
2019-03-30T20:44:49.595Z,56.79
2019-03-30T20:47:20.370Z,56.88
2019-03-30T20:49:51.167Z,56.88
2019-03-30T20:52:21.954Z,57.38
2019-03-30T20:54:52.708Z,57.57
2019-03-30T20:57:23.487Z,57.08
2019-03-30T20:59:54.245Z,56.85
2019-03-30T21:02:25.002Z,56.72
2019-03-30T21:04:55.759Z,56.86
2019-03-30T21:07:26.521Z,56.74
2019-03-30T21:09:57.279Z,57.35
2019-03-30T21:12:28.050Z,57.34
2019-03-30T21:14:58.801Z,56.86
2019-03-30T21:17:29.585Z,57.10
2019-03-30T21:20:00.365Z,57.10
2019-03-30T21:22:31.106Z,56.80
2019-03-30T21:25:02.857Z,56.96
2019-03-30T21:27:33.623Z,56.41
2019-03-30T21:30:06.573Z,56.13
2019-03-30T21:32:37.356Z,56.66
2019-03-30T21:35:08.198Z,56.41
2019-03-30T21:37:39.255Z,57.82
2019-03-30T21:40:10.221Z,57.32
2019-03-30T21:42:40.970Z,57.81
2019-03-30T21:45:11.833Z,58.10
2019-03-30T21:47:42.616Z,58.29
2019-03-30T21:50:13.549Z,58.11
2019-03-30T21:52:44.318Z,57.68
2019-03-30T21:55:15.071Z,58.02
2019-03-30T21:57:45.846Z,58.88
2019-03-30T22:00:31.954Z,59.58
2019-03-30T22:03:03.953Z,60.10
2019-03-30T22:05:34.815Z,59.84
2019-03-30T22:08:05.779Z,59.85
2019-03-30T22:10:36.532Z,58.70
2019-03-30T22:13:07.294Z,58.40
2019-03-30T22:15:38.042Z,59.47
2019-03-30T22:18:08.807Z,59.38
2019-03-30T22:20:39.562Z,58.59
2019-03-30T22:23:10.309Z,59.63
2019-03-30T22:25:41.065Z,59.53
2019-03-30T22:28:11.911Z,59.80
2019-03-30T22:30:42.685Z,60.32
2019-03-30T22:33:13.489Z,59.61
2019-03-30T22:35:44.204Z,59.25
2019-03-30T22:38:14.971Z,59.02
2019-03-30T22:40:45.738Z,57.72
2019-03-30T22:43:16.495Z,58.73
2019-03-30T22:45:47.258Z,59.06
2019-03-30T22:48:18.012Z,58.78
2019-03-30T22:50:48.769Z,59.02
2019-03-30T22:53:19.525Z,59.45
2019-03-30T22:55:50.298Z,59.68
2019-03-30T22:58:21.064Z,57.50
2019-03-30T23:00:54.042Z,57.89
2019-03-30T23:03:24.800Z,57.62
2019-03-30T23:05:55.557Z,58.18
2019-03-30T23:08:26.322Z,58.62
2019-03-30T23:10:57.085Z,58.85
2019-03-30T23:13:27.843Z,58.51
2019-03-30T23:15:58.606Z,59.13
2019-03-30T23:18:29.371Z,58.49
2019-03-30T23:21:00.130Z,58.87
2019-03-30T23:23:30.878Z,59.92
2019-03-30T23:26:01.646Z,60.23
2019-03-30T23:28:32.397Z,59.86
2019-03-30T23:31:03.162Z,59.57
2019-03-30T23:33:33.969Z,59.71
2019-03-30T23:36:04.734Z,60.72
2019-03-30T23:38:35.484Z,59.97
2019-03-30T23:41:06.248Z,59.66
2019-03-30T23:43:37.001Z,59.23
2019-03-30T23:46:07.763Z,58.56
2019-03-30T23:48:38.514Z,59.92
2019-03-30T23:51:09.285Z,60.30
2019-03-30T23:53:40.039Z,59.08
2019-03-30T23:56:22.060Z,58.78
2019-03-30T23:58:52.837Z,59.61
